createdAt,value
2019-03-11T00:00:08.192Z,1.70
2019-03-11T00:01:08.209Z,1.70
2019-03-11T00:02:22.242Z,1.90
2019-03-11T00:03:16.270Z,2.20
2019-03-11T00:04:22.226Z,1.70
2019-03-11T00:05:08.134Z,1.80
2019-03-11T00:06:16.871Z,1.70
2019-03-11T00:07:16.393Z,1.60
2019-03-11T00:08:16.433Z,1.60
2019-03-11T00:09:17.479Z,2.90
2019-03-11T00:10:19.016Z,1.70
2019-03-11T00:11:19.208Z,1.50
2019-03-11T00:12:17.088Z,1.50
2019-03-11T00:13:15.564Z,1.40
2019-03-11T00:14:08.029Z,1.80
2019-03-11T00:15:16.162Z,1.40
2019-03-11T00:16:08.006Z,1.50
2019-03-11T00:17:08.019Z,1.50
2019-03-11T00:18:07.985Z,1.50
2019-03-11T00:19:07.971Z,1.40
2019-03-11T00:20:07.964Z,1.50
2019-03-11T00:21:07.948Z,1.40
2019-03-11T00:22:07.938Z,1.60
2019-03-11T00:23:07.942Z,1.40
2019-03-11T00:24:07.916Z,1.30
2019-03-11T00:25:07.902Z,1.60
2019-03-11T00:26:07.892Z,1.60
2019-03-11T00:27:07.883Z,1.50
2019-03-11T00:28:20.387Z,1.70
2019-03-11T00:29:07.863Z,1.60
2019-03-11T00:30:07.848Z,2.20
2019-03-11T00:31:07.835Z,1.60
2019-03-11T00:32:07.828Z,2.00
2019-03-11T00:33:07.813Z,2.40
2019-03-11T00:34:07.840Z,2.10
2019-03-11T00:35:07.789Z,3.60
2019-03-11T00:36:07.784Z,2.00
2019-03-11T00:37:07.768Z,2.60
2019-03-11T00:38:16.232Z,1.90
2019-03-11T00:39:07.814Z,2.00
2019-03-11T00:40:07.759Z,2.80
2019-03-11T00:41:07.724Z,2.10
2019-03-11T00:42:07.711Z,2.20
2019-03-11T00:43:07.707Z,2.20
2019-03-11T00:44:07.691Z,2.30
2019-03-11T00:45:07.678Z,2.20
2019-03-11T00:46:07.682Z,2.50
2019-03-11T00:47:07.654Z,2.80
2019-03-11T00:48:07.644Z,2.70
2019-03-11T00:49:07.636Z,3.00
2019-03-11T00:50:07.622Z,2.50
2019-03-11T00:51:07.626Z,2.70
2019-03-11T00:52:07.597Z,2.60
2019-03-11T00:53:07.586Z,2.40
2019-03-11T00:54:15.772Z,2.80
2019-03-11T00:55:07.565Z,3.40
2019-03-11T00:56:15.526Z,3.80
2019-03-11T00:57:18.859Z,3.20
2019-03-11T00:58:17.905Z,3.40
2019-03-11T00:59:15.940Z,2.60
2019-03-11T01:03:05.066Z,5.40
2019-03-11T01:09:57.227Z,3.70
2019-03-11T01:13:42.202Z,2.90
2019-03-11T01:16:08.428Z,4.10
2019-03-11T01:17:14.501Z,4.50
2019-03-11T01:18:14.577Z,3.70
2019-03-11T01:19:13.944Z,4.60
2019-03-11T01:20:13.852Z,3.60
2019-03-11T01:21:14.645Z,5.60
2019-03-11T01:22:14.677Z,4.70
2019-03-11T01:23:14.715Z,5.50
2019-03-11T01:24:13.836Z,5.80
2019-03-11T01:25:17.794Z,4.70
2019-03-11T01:26:14.330Z,4.00
2019-03-11T01:27:16.871Z,4.00
2019-03-11T01:28:14.407Z,3.50
2019-03-11T01:29:18.809Z,3.40
2019-03-11T01:30:06.178Z,4.00
2019-03-11T01:31:16.482Z,3.60
2019-03-11T01:32:06.243Z,3.60
2019-03-11T01:33:06.145Z,3.90
2019-03-11T01:34:06.137Z,3.00
2019-03-11T01:35:06.141Z,2.80
2019-03-11T01:36:14.527Z,3.70
2019-03-11T01:37:06.102Z,2.80
2019-03-11T01:38:06.089Z,4.70
2019-03-11T01:39:06.077Z,4.00
2019-03-11T01:40:06.092Z,2.90
2019-03-11T01:41:06.054Z,4.40
2019-03-11T01:42:06.043Z,3.80
2019-03-11T01:43:15.569Z,3.70
2019-03-11T01:44:06.021Z,3.40
2019-03-11T01:45:06.011Z,3.80
2019-03-11T01:46:06.013Z,5.20
2019-03-11T01:47:05.987Z,4.90
2019-03-11T01:48:05.976Z,4.10
2019-03-11T01:49:05.963Z,3.90
2019-03-11T01:50:13.549Z,3.50
2019-03-11T01:51:14.148Z,3.00
2019-03-11T01:52:14.186Z,3.20
2019-03-11T01:53:16.226Z,3.40
2019-03-11T01:54:05.909Z,3.90
2019-03-11T01:55:05.898Z,4.30
2019-03-11T01:56:13.459Z,3.90
2019-03-11T01:57:14.301Z,4.50
2019-03-11T01:58:21.839Z,3.70
2019-03-11T01:59:15.377Z,4.70
2019-03-11T02:00:13.917Z,3.80
2019-03-11T02:01:18.388Z,3.00
2019-03-11T02:02:15.482Z,6.90
2019-03-11T02:03:14.012Z,3.70
2019-03-11T02:05:30.148Z,4.10
2019-03-11T02:06:37.749Z,3.70
2019-03-11T02:07:42.268Z,5.50
2019-03-11T02:08:38.307Z,6.00
2019-03-11T02:09:38.349Z,4.00
2019-03-11T02:10:38.385Z,3.60
2019-03-11T02:11:38.424Z,4.40
2019-03-11T02:12:37.553Z,4.50
2019-03-11T02:13:38.991Z,3.80
2019-03-11T02:14:40.533Z,4.60
2019-03-11T02:15:42.067Z,5.40
2019-03-11T02:16:38.106Z,5.20
2019-03-11T02:17:39.049Z,5.20
2019-03-11T02:18:29.938Z,4.90
2019-03-11T02:19:38.185Z,4.20
2019-03-11T02:20:38.221Z,5.60
2019-03-11T02:26:10.582Z,4.20
2019-03-11T02:27:18.599Z,3.30
2019-03-11T02:28:10.544Z,5.30
2019-03-11T02:29:20.137Z,4.30
2019-03-11T02:30:18.143Z,5.00
2019-03-11T02:31:18.713Z,4.50
2019-03-11T02:32:18.741Z,5.40
2019-03-11T02:33:18.779Z,4.80
2019-03-11T02:34:18.810Z,7.50
2019-03-11T02:35:19.285Z,5.00
2019-03-11T02:36:19.886Z,3.60
2019-03-11T02:37:18.934Z,5.00
2019-03-11T02:38:18.967Z,3.90
2019-03-11T02:39:10.421Z,5.40
2019-03-11T02:40:18.500Z,7.20
2019-03-11T02:41:10.418Z,5.10
2019-03-11T02:42:10.385Z,7.10
2019-03-11T02:43:10.378Z,6.20
2019-03-11T02:44:19.537Z,4.50
2019-03-11T02:45:18.577Z,4.90
2019-03-11T02:46:19.400Z,5.60
2019-03-11T02:47:18.653Z,3.70
2019-03-11T02:48:18.690Z,4.90
2019-03-11T02:49:20.731Z,5.90
2019-03-11T02:50:18.781Z,4.20
2019-03-11T02:51:20.860Z,4.50
2019-03-11T02:52:18.864Z,3.30
2019-03-11T02:53:19.890Z,6.40
2019-03-11T03:12:35.688Z,4.70
2019-03-11T03:13:44.438Z,6.60
2019-03-11T03:14:44.201Z,4.80
2019-03-11T03:15:44.242Z,3.80
2019-03-11T03:16:43.799Z,4.60
2019-03-11T03:17:44.374Z,4.60
2019-03-11T03:18:43.843Z,5.60
2019-03-11T03:19:43.887Z,4.50
2019-03-11T03:20:43.921Z,3.70
2019-03-11T03:21:43.950Z,3.10
2019-03-11T03:22:45.359Z,5.20
2019-03-11T03:23:44.023Z,4.70
2019-03-11T03:24:46.056Z,7.10
2019-03-11T03:25:45.097Z,4.00
2019-03-11T03:26:45.123Z,2.70
2019-03-11T03:27:43.746Z,3.80
2019-03-11T03:28:45.248Z,2.70
2019-03-11T03:29:45.222Z,3.10
2019-03-11T03:30:46.759Z,4.00
2019-03-11T03:31:43.799Z,3.60
2019-03-11T03:32:43.866Z,5.30
2019-03-11T03:33:43.887Z,5.40
2019-03-11T03:34:43.027Z,4.10
2019-03-11T03:35:43.953Z,4.10
2019-03-11T03:36:46.003Z,3.60
2019-03-11T03:37:43.532Z,3.90
2019-03-11T03:38:46.071Z,4.40
2019-03-11T03:39:48.919Z,5.60
2019-03-11T03:40:43.637Z,5.60
2019-03-11T03:41:48.676Z,5.40
2019-03-11T03:42:35.363Z,3.10
2019-03-11T03:43:43.715Z,5.00
2019-03-11T03:46:01.410Z,4.20
2019-03-11T03:47:09.602Z,5.00
2019-03-11T03:48:01.327Z,4.20
2019-03-11T03:49:01.315Z,4.40
2019-03-11T03:50:01.314Z,3.30
2019-03-11T03:51:01.320Z,4.50
2019-03-11T03:52:01.281Z,5.50
2019-03-11T03:53:01.298Z,6.90
2019-03-11T03:54:01.258Z,4.10
2019-03-11T03:55:01.247Z,5.30
2019-03-11T03:56:08.821Z,4.90
2019-03-11T03:57:01.224Z,4.50
2019-03-11T03:58:09.701Z,4.80
2019-03-11T03:59:01.205Z,4.20
2019-03-11T04:00:01.191Z,6.50
2019-03-11T04:01:01.180Z,3.90
2019-03-11T04:02:01.195Z,4.40
2019-03-11T04:03:09.235Z,4.40
2019-03-11T04:04:09.271Z,4.80
2019-03-11T04:05:10.808Z,14.50
2019-03-11T04:06:09.347Z,7.80
2019-03-11T04:07:10.843Z,7.30
2019-03-11T04:08:14.426Z,6.00
2019-03-11T04:09:13.465Z,5.20
2019-03-11T04:11:28.194Z,5.50
2019-03-11T04:12:35.768Z,6.00
2019-03-11T04:13:36.329Z,5.90
2019-03-11T04:14:36.353Z,4.60
2019-03-11T04:19:53.529Z,7.00
2019-03-11T04:32:27.425Z,9.10
2019-03-11T04:33:35.653Z,8.10
2019-03-11T04:34:36.399Z,8.10
2019-03-11T04:35:27.391Z,6.50
2019-03-11T04:37:56.533Z,7.70
2019-03-11T04:39:04.718Z,9.60
2019-03-11T04:40:04.172Z,8.20
2019-03-11T04:41:04.787Z,6.40
2019-03-11T04:41:56.480Z,6.90
2019-03-11T04:42:56.470Z,9.10
2019-03-11T04:43:56.456Z,7.70
2019-03-11T04:45:04.401Z,8.20
2019-03-11T04:45:56.434Z,8.90
2019-03-11T04:47:04.858Z,6.60
2019-03-11T04:48:07.396Z,8.50
2019-03-11T04:48:56.402Z,8.60
2019-03-11T04:49:56.387Z,8.20
2019-03-11T04:51:04.054Z,8.20
2019-03-11T04:53:28.979Z,6.20
2019-03-11T04:58:01.056Z,8.90
2019-03-11T05:04:32.766Z,9.30
2019-03-11T05:05:40.313Z,8.50
2019-03-11T05:06:43.479Z,9.10
2019-03-11T05:07:32.710Z,7.70
2019-03-11T05:08:32.702Z,8.40
2019-03-11T05:09:32.690Z,7.60
2019-03-11T05:10:32.701Z,6.60
2019-03-11T05:11:32.666Z,9.30
2019-03-11T05:12:32.655Z,9.20
2019-03-11T05:13:32.653Z,6.60
2019-03-11T05:14:32.633Z,8.70
2019-03-11T05:15:32.651Z,7.20
2019-03-11T05:16:32.660Z,7.50
2019-03-11T05:17:32.601Z,6.80
2019-03-11T05:18:32.587Z,8.80
2019-03-11T05:19:32.579Z,7.70
2019-03-11T05:20:32.566Z,10.30
2019-03-11T05:21:32.571Z,9.30
2019-03-11T05:22:32.545Z,8.70
2019-03-11T05:23:32.542Z,9.40
2019-03-11T05:24:32.522Z,6.20
2019-03-11T05:25:32.526Z,8.40
2019-03-11T05:26:32.499Z,10.80
2019-03-11T05:27:32.488Z,10.60
2019-03-11T05:28:32.475Z,8.90
2019-03-11T05:29:32.465Z,9.70
2019-03-11T05:30:32.469Z,9.90
2019-03-11T05:31:32.442Z,8.70
2019-03-11T05:32:32.434Z,8.00
2019-03-11T05:33:32.419Z,7.20
2019-03-11T05:34:32.409Z,8.50
2019-03-11T05:35:32.411Z,6.50
2019-03-11T05:36:32.386Z,10.60
2019-03-11T05:37:32.378Z,8.80
2019-03-11T05:38:32.365Z,8.90
2019-03-11T05:39:32.352Z,9.00
2019-03-11T05:40:32.359Z,8.20
2019-03-11T05:41:32.331Z,8.70
2019-03-11T05:42:32.325Z,11.50
2019-03-11T05:43:32.313Z,8.80
2019-03-11T05:44:32.301Z,10.70
2019-03-11T05:45:32.301Z,9.30
2019-03-11T05:46:32.276Z,8.50
2019-03-11T05:47:32.263Z,7.10
2019-03-11T05:48:32.254Z,7.80
2019-03-11T05:49:32.245Z,7.60
2019-03-11T05:50:32.247Z,8.30
2019-03-11T05:51:32.266Z,8.10
2019-03-11T05:52:32.206Z,7.10
2019-03-11T05:53:32.195Z,7.50
2019-03-11T05:54:32.189Z,7.90
2019-03-11T05:55:32.194Z,9.00
2019-03-11T05:56:32.163Z,7.40
2019-03-11T05:57:32.153Z,10.70
2019-03-11T05:58:32.141Z,8.30
2019-03-11T05:59:32.131Z,8.30
2019-03-11T06:00:32.140Z,8.60
2019-03-11T06:01:32.110Z,7.30
2019-03-11T06:02:32.098Z,8.00
2019-03-11T06:03:32.083Z,10.30
2019-03-11T06:04:32.075Z,6.90
2019-03-11T06:05:32.082Z,6.60
2019-03-11T06:06:32.068Z,6.20
2019-03-11T06:07:32.044Z,8.80
2019-03-11T06:08:32.030Z,8.00
2019-03-11T06:09:32.020Z,6.40
2019-03-11T06:10:32.026Z,8.40
2019-03-11T06:11:32.007Z,9.20
2019-03-11T06:12:31.988Z,8.40
2019-03-11T06:13:35.961Z,9.60
2019-03-11T06:14:31.970Z,7.50
2019-03-11T06:15:31.965Z,7.10
2019-03-11T06:16:31.940Z,7.70
2019-03-11T06:17:31.948Z,9.00
2019-03-11T06:18:31.920Z,9.50
2019-03-11T06:19:32.488Z,4.90
2019-03-11T06:20:31.920Z,8.50
2019-03-11T06:21:32.487Z,6.80
2019-03-11T06:22:31.871Z,4.70
2019-03-11T06:23:31.869Z,8.10
2019-03-11T06:24:31.853Z,6.50
2019-03-11T06:25:31.865Z,8.20
2019-03-11T06:26:31.828Z,9.80
2019-03-11T06:27:31.819Z,7.40
2019-03-11T06:28:31.806Z,8.00
2019-03-11T06:29:31.798Z,8.10
2019-03-11T06:30:31.806Z,8.10
2019-03-11T06:31:31.781Z,6.30
2019-03-11T06:32:31.768Z,7.40
2019-03-11T06:33:31.807Z,7.20
2019-03-11T06:34:31.741Z,5.30
2019-03-11T06:35:31.746Z,7.50
2019-03-11T06:36:31.719Z,6.90
2019-03-11T06:37:31.706Z,4.50
2019-03-11T06:38:31.696Z,4.80
2019-03-11T06:39:31.686Z,6.70
2019-03-11T06:40:31.691Z,4.00
2019-03-11T06:41:31.663Z,4.80
2019-03-11T06:42:31.650Z,3.70
2019-03-11T06:43:31.735Z,2.80
2019-03-11T06:44:31.629Z,3.20
2019-03-11T06:45:31.636Z,2.10
2019-03-11T06:46:31.605Z,3.80
2019-03-11T06:47:31.595Z,3.00
2019-03-11T06:48:31.584Z,2.60
2019-03-11T06:49:31.576Z,4.40
2019-03-11T06:50:31.586Z,2.60
2019-03-11T06:51:31.555Z,2.40
2019-03-11T06:52:31.538Z,2.10
2019-03-11T06:53:31.526Z,3.10
2019-03-11T06:54:31.516Z,2.40
2019-03-11T06:55:31.525Z,3.50
2019-03-11T06:56:31.495Z,2.40
2019-03-11T06:57:31.486Z,3.00
2019-03-11T06:58:31.483Z,3.30
2019-03-11T06:59:31.462Z,2.40
2019-03-11T07:00:31.468Z,2.60
2019-03-11T07:01:31.439Z,2.80
2019-03-11T07:02:31.427Z,3.50
2019-03-11T07:03:31.419Z,3.80
2019-03-11T07:04:31.405Z,2.50
2019-03-11T07:05:31.411Z,3.60
2019-03-11T07:06:31.383Z,2.80
2019-03-11T07:07:31.371Z,3.50
2019-03-11T07:08:31.360Z,3.20
2019-03-11T07:09:31.349Z,2.00
2019-03-11T07:10:31.354Z,2.10
2019-03-11T07:11:31.330Z,3.10
2019-03-11T07:12:31.322Z,3.60
2019-03-11T07:13:31.305Z,3.30
2019-03-11T07:14:31.295Z,3.10
2019-03-11T07:15:31.302Z,3.80
2019-03-11T07:16:31.271Z,2.60
2019-03-11T07:17:31.259Z,3.00
2019-03-11T07:18:31.249Z,2.60
2019-03-11T07:19:31.238Z,2.60
2019-03-11T07:20:31.242Z,3.20
2019-03-11T07:21:31.215Z,2.50
2019-03-11T07:22:31.204Z,3.30
2019-03-11T07:23:31.195Z,3.30
2019-03-11T07:24:31.181Z,3.40
2019-03-11T07:25:31.187Z,2.80
2019-03-11T07:26:31.159Z,2.40
2019-03-11T07:27:31.149Z,3.30
2019-03-11T07:28:31.136Z,4.30
2019-03-11T07:29:31.126Z,2.50
2019-03-11T07:30:31.134Z,2.20
2019-03-11T07:31:31.102Z,1.60
2019-03-11T07:32:31.095Z,3.00
2019-03-11T07:33:31.082Z,2.70
2019-03-11T07:34:31.068Z,2.70
2019-03-11T07:35:31.076Z,4.30
2019-03-11T07:36:31.048Z,3.70
2019-03-11T07:37:31.034Z,12.00
2019-03-11T07:38:31.022Z,3.40
2019-03-11T07:39:32.653Z,4.60
2019-03-11T07:40:31.021Z,4.40
2019-03-11T07:41:30.994Z,5.10
2019-03-11T07:42:30.977Z,4.50
2019-03-11T07:43:30.966Z,5.90
2019-03-11T07:44:30.954Z,4.50
2019-03-11T07:45:30.969Z,4.30
2019-03-11T07:46:30.933Z,3.50
2019-03-11T07:47:30.924Z,5.50
2019-03-11T07:48:30.912Z,6.90
2019-03-11T07:49:30.897Z,4.60
2019-03-11T07:50:30.906Z,3.10
2019-03-11T07:51:30.877Z,3.50
2019-03-11T07:52:30.866Z,3.80
2019-03-11T07:53:30.855Z,5.10
2019-03-11T07:54:35.766Z,4.40
2019-03-11T07:55:31.846Z,5.10
2019-03-11T07:56:30.820Z,4.40
2019-03-11T07:57:30.808Z,3.20
2019-03-11T07:58:30.797Z,4.40
2019-03-11T07:59:30.787Z,4.00
2019-03-11T08:00:30.789Z,5.00
2019-03-11T08:01:30.766Z,3.70
2019-03-11T08:02:30.752Z,4.50
2019-03-11T08:03:30.741Z,5.40
2019-03-11T08:04:30.740Z,4.70
2019-03-11T08:05:30.735Z,6.10
2019-03-11T08:06:30.706Z,3.80
2019-03-11T08:07:30.697Z,4.00
2019-03-11T08:08:30.686Z,5.00
2019-03-11T08:09:37.797Z,4.40
2019-03-11T08:10:31.682Z,6.40
2019-03-11T08:11:30.652Z,5.90
2019-03-11T08:12:30.639Z,4.40
2019-03-11T08:13:30.628Z,4.80
2019-03-11T08:14:30.621Z,5.70
2019-03-11T08:15:30.624Z,7.10
2019-03-11T08:16:30.615Z,7.20
2019-03-11T08:17:30.585Z,4.40
2019-03-11T08:18:34.984Z,4.30
2019-03-11T08:19:30.563Z,5.90
2019-03-11T08:20:30.572Z,4.50
2019-03-11T08:21:30.539Z,5.90
2019-03-11T08:22:30.532Z,5.60
2019-03-11T08:23:30.517Z,4.00
2019-03-11T08:24:30.506Z,6.20
2019-03-11T08:25:30.512Z,4.10
2019-03-11T08:26:30.484Z,5.40
2019-03-11T08:27:30.472Z,7.10
2019-03-11T08:28:30.465Z,6.00
2019-03-11T08:29:30.450Z,7.00
2019-03-11T08:30:30.459Z,4.40
2019-03-11T08:31:30.426Z,6.80
2019-03-11T08:32:30.414Z,7.20
2019-03-11T08:33:30.405Z,5.10
2019-03-11T08:34:30.391Z,5.50
2019-03-11T08:35:30.398Z,5.60
2019-03-11T08:36:30.369Z,3.80
2019-03-11T08:37:30.359Z,6.00
2019-03-11T08:38:30.351Z,5.70
2019-03-11T08:39:38.542Z,5.60
2019-03-11T08:40:30.341Z,5.60
2019-03-11T08:41:30.314Z,6.70
2019-03-11T08:42:30.307Z,6.70
2019-03-11T08:43:30.291Z,4.80
2019-03-11T08:44:30.284Z,5.50
2019-03-11T08:45:30.285Z,6.10
2019-03-11T08:46:30.256Z,7.60
2019-03-11T08:47:30.244Z,6.00
2019-03-11T08:48:30.235Z,6.00
2019-03-11T08:49:30.222Z,5.70
2019-03-11T08:50:30.233Z,4.70
2019-03-11T08:51:30.202Z,7.70
2019-03-11T08:52:30.188Z,6.20
2019-03-11T08:53:30.176Z,6.40
2019-03-11T08:54:30.168Z,6.20
2019-03-11T08:55:37.687Z,5.40
2019-03-11T08:56:30.151Z,6.10
2019-03-11T08:57:30.131Z,6.20
2019-03-11T08:58:30.119Z,7.60
2019-03-11T08:59:30.108Z,6.10
2019-03-11T09:00:30.115Z,6.90
2019-03-11T09:01:38.123Z,5.50
2019-03-11T09:02:30.074Z,5.20
2019-03-11T09:03:30.063Z,5.40
2019-03-11T09:04:30.051Z,6.30
2019-03-11T09:05:30.057Z,5.50
2019-03-11T09:06:30.029Z,4.80
2019-03-11T09:07:30.019Z,5.00
2019-03-11T09:08:30.007Z,6.50
2019-03-11T09:09:31.848Z,6.30
2019-03-11T09:10:30.001Z,6.90
2019-03-11T09:11:29.972Z,6.60
2019-03-11T09:12:29.964Z,7.80
2019-03-11T09:13:30.677Z,6.80
2019-03-11T09:14:29.937Z,6.50
2019-03-11T09:15:29.944Z,6.10
2019-03-11T09:16:29.916Z,5.00
2019-03-11T09:17:29.904Z,6.70
2019-03-11T09:18:29.893Z,7.70
2019-03-11T09:19:29.890Z,6.60
2019-03-11T09:20:29.887Z,6.20
2019-03-11T09:21:29.858Z,6.40
2019-03-11T09:22:29.849Z,5.50
2019-03-11T09:23:29.835Z,7.50
2019-03-11T09:24:29.828Z,5.70
2019-03-11T09:25:29.828Z,5.90
2019-03-11T09:26:29.804Z,7.90
2019-03-11T09:27:29.791Z,6.60
2019-03-11T09:28:29.875Z,9.30
2019-03-11T09:29:29.770Z,5.90
2019-03-11T09:30:29.776Z,6.60
2019-03-11T09:31:29.748Z,5.80
2019-03-11T09:32:29.736Z,7.50
2019-03-11T09:33:29.726Z,6.50
2019-03-11T09:34:29.713Z,4.70
2019-03-11T09:35:29.722Z,4.70
2019-03-11T09:36:29.690Z,5.70
2019-03-11T09:37:29.678Z,6.50
2019-03-11T09:38:29.674Z,5.60
2019-03-11T09:39:29.656Z,6.10
2019-03-11T09:40:29.660Z,6.30
2019-03-11T09:41:29.636Z,4.50
2019-03-11T09:42:38.175Z,5.30
2019-03-11T09:43:29.612Z,5.80
2019-03-11T09:44:29.600Z,6.10
2019-03-11T09:45:29.604Z,5.50
2019-03-11T09:46:29.613Z,4.40
2019-03-11T09:47:29.567Z,7.30
2019-03-11T09:48:40.201Z,5.60
2019-03-11T09:49:29.543Z,4.30
2019-03-11T09:50:29.549Z,5.10
2019-03-11T09:51:29.522Z,5.00
2019-03-11T09:52:37.747Z,4.40
2019-03-11T09:53:29.498Z,5.00
2019-03-11T09:54:29.490Z,6.00
2019-03-11T09:55:29.492Z,6.80
2019-03-11T09:56:29.465Z,4.20
2019-03-11T09:57:29.456Z,5.80
2019-03-11T09:58:29.441Z,6.60
2019-03-11T09:59:29.432Z,6.00
2019-03-11T10:00:37.063Z,5.30
2019-03-11T10:01:29.410Z,4.60
2019-03-11T10:02:29.396Z,5.70
2019-03-11T10:03:29.444Z,6.00
2019-03-11T10:04:29.374Z,5.50
2019-03-11T10:05:29.426Z,5.50
2019-03-11T10:06:29.354Z,5.70
2019-03-11T10:07:29.341Z,3.40
2019-03-11T10:08:29.330Z,4.80
2019-03-11T10:09:29.318Z,9.70
2019-03-11T10:10:29.324Z,4.60
2019-03-11T10:11:29.297Z,5.80
2019-03-11T10:12:29.287Z,4.80
2019-03-11T10:13:29.276Z,5.10
2019-03-11T10:14:29.263Z,4.30
2019-03-11T10:15:29.266Z,4.70
2019-03-11T10:16:29.239Z,5.30
2019-03-11T10:17:38.822Z,5.80
2019-03-11T10:18:29.215Z,4.20
2019-03-11T10:19:29.205Z,5.10
2019-03-11T10:20:29.211Z,5.60
2019-03-11T10:21:29.181Z,5.60
2019-03-11T10:22:29.172Z,4.90
2019-03-11T10:23:32.334Z,4.80
2019-03-11T10:24:29.148Z,4.00
2019-03-11T10:25:29.152Z,5.90
2019-03-11T10:26:29.125Z,4.80
2019-03-11T10:27:29.117Z,6.10
2019-03-11T10:28:29.101Z,7.30
2019-03-11T10:29:29.090Z,4.90
2019-03-11T10:30:29.105Z,3.30
2019-03-11T10:31:29.070Z,4.70
2019-03-11T10:32:29.056Z,5.60
2019-03-11T10:33:29.048Z,5.50
2019-03-11T10:34:29.035Z,4.00
2019-03-11T10:35:32.925Z,4.50
2019-03-11T10:36:29.011Z,5.00
2019-03-11T10:37:29.000Z,3.40
2019-03-11T10:38:28.992Z,4.70
2019-03-11T10:39:28.978Z,4.10
2019-03-11T10:40:28.981Z,2.80
2019-03-11T10:41:28.956Z,3.70
2019-03-11T10:42:28.943Z,3.50
2019-03-11T10:43:28.937Z,5.10
2019-03-11T10:44:28.921Z,5.60
2019-03-11T10:45:31.714Z,5.80
2019-03-11T10:46:28.899Z,4.70
2019-03-11T10:47:28.891Z,3.60
2019-03-11T10:48:36.574Z,4.10
2019-03-11T10:49:29.861Z,4.20
2019-03-11T10:50:28.868Z,4.80
2019-03-11T10:51:28.843Z,5.80
2019-03-11T10:52:28.833Z,4.60
2019-03-11T10:53:28.818Z,4.10
2019-03-11T10:54:28.808Z,7.40
2019-03-11T10:55:28.814Z,4.40
2019-03-11T10:56:28.786Z,5.40
2019-03-11T10:57:28.775Z,4.50
2019-03-11T10:58:29.234Z,4.90
2019-03-11T10:59:28.773Z,5.00
2019-03-11T11:00:28.759Z,4.70
2019-03-11T11:01:28.729Z,6.20
2019-03-11T11:02:28.718Z,4.80
2019-03-11T11:03:28.707Z,4.50
2019-03-11T11:04:28.695Z,3.60
2019-03-11T11:05:28.702Z,5.80
2019-03-11T11:06:28.675Z,5.20
2019-03-11T11:07:28.662Z,3.20
2019-03-11T11:08:28.650Z,4.30
2019-03-11T11:09:28.647Z,4.50
2019-03-11T11:10:28.645Z,4.90
2019-03-11T11:11:28.616Z,4.10
2019-03-11T11:12:28.604Z,4.30
2019-03-11T11:13:28.594Z,4.10
2019-03-11T11:14:28.637Z,4.40
2019-03-11T11:15:28.594Z,5.20
2019-03-11T11:16:28.560Z,4.80
2019-03-11T11:17:28.548Z,8.40
2019-03-11T11:18:28.538Z,4.70
2019-03-11T11:19:28.525Z,3.50
2019-03-11T11:20:28.532Z,4.10
2019-03-11T11:21:28.505Z,4.70
2019-03-11T11:22:28.493Z,5.10
2019-03-11T11:23:28.481Z,5.20
2019-03-11T11:24:28.469Z,5.10
2019-03-11T11:25:28.481Z,4.40
2019-03-11T11:26:28.448Z,4.40
2019-03-11T11:27:28.436Z,3.90
2019-03-11T11:28:28.424Z,4.00
2019-03-11T11:29:28.414Z,4.10
2019-03-11T11:30:28.419Z,2.60
2019-03-11T11:31:28.390Z,5.30
2019-03-11T11:32:28.381Z,3.60
2019-03-11T11:33:28.370Z,3.50
2019-03-11T11:34:28.362Z,5.40
2019-03-11T11:35:28.381Z,5.30
2019-03-11T11:36:28.334Z,4.90
2019-03-11T11:37:28.324Z,3.80
2019-03-11T11:38:28.312Z,4.80
2019-03-11T11:39:28.301Z,5.80
2019-03-11T11:40:28.290Z,3.70
2019-03-11T11:41:28.305Z,5.00
2019-03-11T11:42:28.268Z,4.60
2019-03-11T11:43:28.256Z,3.90
2019-03-11T11:44:28.249Z,4.90
2019-03-11T11:45:28.250Z,3.80
2019-03-11T11:46:28.223Z,4.80
2019-03-11T11:47:28.212Z,4.60
2019-03-11T11:48:28.201Z,2.60
2019-03-11T11:49:28.189Z,5.60
2019-03-11T11:50:28.195Z,4.00
2019-03-11T11:51:28.168Z,3.10
2019-03-11T11:52:28.155Z,5.00
2019-03-11T11:53:28.147Z,3.30
2019-03-11T11:54:28.133Z,4.10
2019-03-11T11:55:28.139Z,3.10
2019-03-11T11:56:28.114Z,2.70
2019-03-11T11:57:28.097Z,4.00
2019-03-11T11:58:28.083Z,6.50
2019-03-11T11:59:28.073Z,3.20
2019-03-11T12:00:28.076Z,4.30
2019-03-11T12:01:28.052Z,3.10
2019-03-11T12:02:28.042Z,3.40
2019-03-11T12:03:28.031Z,6.30
2019-03-11T12:04:28.017Z,2.80
2019-03-11T12:05:28.024Z,3.00
2019-03-11T12:06:28.067Z,3.40
2019-03-11T12:07:28.062Z,3.60
2019-03-11T12:08:27.975Z,3.00
2019-03-11T12:09:27.964Z,3.70
2019-03-11T12:10:27.972Z,3.70
2019-03-11T12:11:27.941Z,3.90
2019-03-11T12:12:27.934Z,2.90
2019-03-11T12:13:27.922Z,3.20
2019-03-11T12:14:27.907Z,4.50
2019-03-11T12:15:27.912Z,3.70
2019-03-11T12:16:27.888Z,2.60
2019-03-11T12:17:27.874Z,5.50
2019-03-11T12:18:27.862Z,3.20
2019-03-11T12:19:27.851Z,3.30
2019-03-11T12:20:27.855Z,2.60
2019-03-11T12:21:27.831Z,2.70
2019-03-11T12:22:27.818Z,3.90
2019-03-11T12:23:27.806Z,3.30
2019-03-11T12:24:27.795Z,2.70
2019-03-11T12:25:27.806Z,2.40
2019-03-11T12:26:27.775Z,2.40
2019-03-11T12:27:27.763Z,3.40
2019-03-11T12:28:27.750Z,3.10
2019-03-11T12:29:28.164Z,3.50
2019-03-11T12:30:27.762Z,3.60
2019-03-11T12:31:27.718Z,3.20
2019-03-11T12:32:27.708Z,3.60
2019-03-11T12:33:27.695Z,3.40
2019-03-11T12:34:27.683Z,2.50
2019-03-11T12:35:27.692Z,3.00
2019-03-11T12:36:27.659Z,5.20
2019-03-11T12:37:27.655Z,3.10
2019-03-11T12:38:28.875Z,3.90
2019-03-11T12:39:27.627Z,2.70
2019-03-11T12:40:27.632Z,3.40
2019-03-11T12:41:27.604Z,2.00
2019-03-11T12:42:27.594Z,2.70
2019-03-11T12:43:27.582Z,2.30
2019-03-11T12:44:27.570Z,2.50
2019-03-11T12:45:27.574Z,2.30
2019-03-11T12:46:27.552Z,3.90
2019-03-11T12:47:27.536Z,2.40
2019-03-11T12:48:27.528Z,3.10
2019-03-11T12:49:27.528Z,2.50
2019-03-11T12:50:27.519Z,2.50
2019-03-11T12:51:27.492Z,2.60
2019-03-11T12:52:27.482Z,1.90
2019-03-11T12:53:27.469Z,2.20
2019-03-11T12:54:27.457Z,2.40
2019-03-11T12:55:27.463Z,2.90
2019-03-11T12:56:27.435Z,2.80
2019-03-11T12:57:27.424Z,2.80
2019-03-11T12:58:27.417Z,2.60
2019-03-11T12:59:27.401Z,1.90
2019-03-11T13:00:27.407Z,1.70
2019-03-11T13:01:27.380Z,3.00
2019-03-11T13:02:27.369Z,2.90
2019-03-11T13:03:27.357Z,2.20
2019-03-11T13:04:27.353Z,1.80
2019-03-11T13:05:27.352Z,1.90
2019-03-11T13:06:27.321Z,1.80
2019-03-11T13:07:27.310Z,1.70
2019-03-11T13:08:27.301Z,1.80
2019-03-11T13:09:27.292Z,1.70
2019-03-11T13:10:27.295Z,2.30
2019-03-11T13:11:27.267Z,2.60
2019-03-11T13:12:27.259Z,1.80
2019-03-11T13:13:27.245Z,1.70
2019-03-11T13:14:27.238Z,1.60
2019-03-11T13:15:27.295Z,2.50
2019-03-11T13:16:27.210Z,1.80
2019-03-11T13:17:27.201Z,1.70
2019-03-11T13:18:27.189Z,2.70
2019-03-11T13:19:27.179Z,2.40
2019-03-11T13:20:27.184Z,1.30
2019-03-11T13:21:27.154Z,2.30
2019-03-11T13:22:27.143Z,1.50
2019-03-11T13:23:27.133Z,1.80
2019-03-11T13:24:27.129Z,1.60
2019-03-11T13:25:27.138Z,1.60
2019-03-11T13:26:27.099Z,1.20
2019-03-11T13:27:27.088Z,2.00
2019-03-11T13:28:27.077Z,1.40
2019-03-11T13:29:27.066Z,4.60
2019-03-11T13:30:27.255Z,2.00
2019-03-11T13:31:27.059Z,3.10
2019-03-11T13:32:27.261Z,1.90
2019-03-11T13:33:27.021Z,2.40
2019-03-11T13:34:27.008Z,1.70
2019-03-11T13:35:27.021Z,1.70
2019-03-11T13:36:26.986Z,1.60
2019-03-11T13:37:26.975Z,2.70
2019-03-11T13:38:26.964Z,2.40
2019-03-11T13:39:26.954Z,2.40
2019-03-11T13:40:26.956Z,2.00
2019-03-11T13:41:26.930Z,3.00
2019-03-11T13:42:26.920Z,2.60
2019-03-11T13:43:26.909Z,2.70
2019-03-11T13:44:26.897Z,2.00
2019-03-11T13:45:26.906Z,3.90
2019-03-11T13:46:26.874Z,2.30
2019-03-11T13:47:26.863Z,1.80
2019-03-11T13:48:26.854Z,2.60
2019-03-11T13:49:26.840Z,1.80
2019-03-11T13:50:26.849Z,3.10
2019-03-11T13:51:26.818Z,1.50
2019-03-11T13:52:26.807Z,4.30
2019-03-11T13:53:26.796Z,1.80
2019-03-11T13:54:26.786Z,1.80
2019-03-11T13:55:26.790Z,2.80
2019-03-11T13:56:26.762Z,2.60
2019-03-11T13:57:26.751Z,2.60
2019-03-11T13:58:26.739Z,2.70
2019-03-11T13:59:26.729Z,1.80
2019-03-11T14:00:26.734Z,2.90
2019-03-11T14:01:26.710Z,2.30
2019-03-11T14:02:26.698Z,2.60
2019-03-11T14:03:26.684Z,2.10
2019-03-11T14:04:26.678Z,1.80
2019-03-11T14:05:26.699Z,2.20
2019-03-11T14:06:26.651Z,2.70
2019-03-11T14:07:26.639Z,2.10
2019-03-11T14:08:26.630Z,1.90
2019-03-11T14:09:26.619Z,2.50
2019-03-11T14:10:26.622Z,1.90
2019-03-11T14:11:26.594Z,2.60
2019-03-11T14:12:26.583Z,2.40
2019-03-11T14:13:26.571Z,2.40
2019-03-11T14:14:26.561Z,2.50
2019-03-11T14:15:26.567Z,2.70
2019-03-11T14:16:26.538Z,2.20
2019-03-11T14:17:26.525Z,4.70
2019-03-11T14:18:26.519Z,2.80
2019-03-11T14:19:26.504Z,2.30
2019-03-11T14:20:26.511Z,3.00
2019-03-11T14:21:26.483Z,3.70
2019-03-11T14:22:26.475Z,1.80
2019-03-11T14:23:26.461Z,1.80
2019-03-11T14:24:26.447Z,1.70
2019-03-11T14:25:26.453Z,2.50
2019-03-11T14:26:26.428Z,1.90